sensor_id;sensor_type;location;lat;lon;timestamp;pressure;altitude;pressure_sealevel;temperature;humidity
20630;BME280;17386;43.846;25.950;2023-03-19T00:01:25;102098.78;;;9.23;84.33
20630;BME280;17386;43.846;25.950;2023-03-19T00:03:51;102101.47;;;9.21;84.41
20630;BME280;17386;43.846;25.950;2023-03-19T00:06:17;102093.53;;;9.17;84.52
20630;BME280;17386;43.846;25.950;2023-03-19T00:08:42;102098.84;;;9.17;84.78
20630;BME280;17386;43.846;25.950;2023-03-19T00:11:09;102099.81;;;9.08;85.03
20630;BME280;17386;43.846;25.950;2023-03-19T00:13:35;102097.16;;;9.07;85.67
20630;BME280;17386;43.846;25.950;2023-03-19T00:16:01;102088.31;;;9.09;85.94
20630;BME280;17386;43.846;25.950;2023-03-19T00:18:26;102088.38;;;9.00;86.31
20630;BME280;17386;43.846;25.950;2023-03-19T00:20:52;102093.66;;;9.01;86.62
20630;BME280;17386;43.846;25.950;2023-03-19T00:23:17;102098.06;;;9.02;86.46
20630;BME280;17386;43.846;25.950;2023-03-19T00:25:43;102086.59;;;9.02;87.33
20630;BME280;17386;43.846;25.950;2023-03-19T00:28:08;102080.38;;;9.04;87.79
20630;BME280;17386;43.846;25.950;2023-03-19T00:30:34;102076.88;;;9.02;88.09
20630;BME280;17386;43.846;25.950;2023-03-19T00:33:00;102082.28;;;8.87;88.79
20630;BME280;17386;43.846;25.950;2023-03-19T00:35:26;102074.34;;;8.84;89.78
20630;BME280;17386;43.846;25.950;2023-03-19T00:37:52;102077.03;;;8.78;89.84
20630;BME280;17386;43.846;25.950;2023-03-19T00:40:17;102073.53;;;8.76;90.34
20630;BME280;17386;43.846;25.950;2023-03-19T00:42:43;102078.81;;;8.77;90.38
20630;BME280;17386;43.846;25.950;2023-03-19T00:45:10;102072.66;;;8.75;91.35
20630;BME280;17386;43.846;25.950;2023-03-19T00:47:35;102076.22;;;8.73;92.11
20630;BME280;17386;43.846;25.950;2023-03-19T00:50:02;102075.28;;;8.80;92.64
20630;BME280;17386;43.846;25.950;2023-03-19T00:52:28;102072.59;;;8.82;93.01
20630;BME280;17386;43.846;25.950;2023-03-19T00:54:54;102067.28;;;8.86;92.76
20630;BME280;17386;43.846;25.950;2023-03-19T00:57:19;102061.06;;;8.89;92.77
20630;BME280;17386;43.846;25.950;2023-03-19T00:59:44;102062.91;;;8.79;93.62
20630;BME280;17386;43.846;25.950;2023-03-19T01:02:10;102066.41;;;8.83;93.67
20630;BME280;17386;43.846;25.950;2023-03-19T01:04:35;102065.50;;;8.87;93.74
20630;BME280;17386;43.846;25.950;2023-03-19T01:07:01;102062.00;;;8.83;94.37
20630;BME280;17386;43.846;25.950;2023-03-19T01:09:26;102063.81;;;8.76;94.58
20630;BME280;17386;43.846;25.950;2023-03-19T01:11:51;102056.72;;;8.80;94.70
20630;BME280;17386;43.846;25.950;2023-03-19T01:14:17;102056.72;;;8.82;95.12
20630;BME280;17386;43.846;25.950;2023-03-19T01:16:42;102058.47;;;8.78;95.70
20630;BME280;17386;43.846;25.950;2023-03-19T01:19:08;102057.63;;;8.79;96.23
20630;BME280;17386;43.846;25.950;2023-03-19T01:21:33;102060.22;;;8.82;96.34
20630;BME280;17386;43.846;25.950;2023-03-19T01:24:00;102062.00;;;8.82;96.35
20630;BME280;17386;43.846;25.950;2023-03-19T01:26:26;102062.91;;;8.79;96.26
20630;BME280;17386;43.846;25.950;2023-03-19T01:28:52;102070.06;;;8.63;96.78
20630;BME280;17386;43.846;25.950;2023-03-19T01:31:17;102063.91;;;8.66;96.67
20630;BME280;17386;43.846;25.950;2023-03-19T01:33:43;102064.78;;;8.65;96.55
20630;BME280;17386;43.846;25.950;2023-03-19T01:36:08;102064.78;;;8.63;96.48
20630;BME280;17386;43.846;25.950;2023-03-19T01:38:35;102057.75;;;8.58;97.12
20630;BME280;17386;43.846;25.950;2023-03-19T01:41:00;102063.97;;;8.50;97.51
20630;BME280;17386;43.846;25.950;2023-03-19T01:43:29;102063.94;;;8.60;97.50
20630;BME280;17386;43.846;25.950;2023-03-19T01:46:01;102069.28;;;8.52;97.85
20630;BME280;17386;43.846;25.950;2023-03-19T01:48:43;102072.75;;;8.57;97.52
20630;BME280;17386;43.846;25.950;2023-03-19T01:51:13;102074.56;;;8.54;97.84
20630;BME280;17386;43.846;25.950;2023-03-19T01:53:44;102060.50;;;8.41;98.67
20630;BME280;17386;43.846;25.950;2023-03-19T01:56:15;102060.53;;;8.36;99.40
20630;BME280;17386;43.846;25.950;2023-03-19T01:58:45;102057.00;;;8.30;99.74
20630;BME280;17386;43.846;25.950;2023-03-19T02:01:12;102036.78;;;8.13;100.00
20630;BME280;17386;43.846;25.950;2023-03-19T02:03:38;102053.50;;;8.23;100.00
20630;BME280;17386;43.846;25.950;2023-03-19T02:06:05;102052.63;;;8.21;100.00
20630;BME280;17386;43.846;25.950;2023-03-19T02:08:32;102054.41;;;8.16;100.00
20630;BME280;17386;43.846;25.950;2023-03-19T02:10:58;102050.00;;;8.19;100.00
20630;BME280;17386;43.846;25.950;2023-03-19T02:13:25;102049.09;;;8.22;100.00
20630;BME280;17386;43.846;25.950;2023-03-19T02:15:52;102045.63;;;8.12;100.00
20630;BME280;17386;43.846;25.950;2023-03-19T02:18:18;102053.56;;;8.17;100.00
20630;BME280;17386;43.846;25.950;2023-03-19T02:21:04;102054.44;;;8.13;100.00
20630;BME280;17386;43.846;25.950;2023-03-19T02:23:42;102060.59;;;8.15;100.00
20630;BME280;17386;43.846;25.950;2023-03-19T02:26:14;102063.34;;;7.93;100.00
20630;BME280;17386;43.846;25.950;2023-03-19T02:28:42;102063.38;;;7.84;100.00
20630;BME280;17386;43.846;25.950;2023-03-19T02:31:08;102061.59;;;7.86;100.00
20630;BME280;17386;43.846;25.950;2023-03-19T02:33:34;102054.53;;;7.91;100.00
20630;BME280;17386;43.846;25.950;2023-03-19T02:36:01;102059.81;;;7.91;100.00
20630;BME280;17386;43.846;25.950;2023-03-19T02:38:29;102064.22;;;7.94;100.00
20630;BME280;17386;43.846;25.950;2023-03-19T02:41:02;102058.94;;;7.91;100.00
20630;BME280;17386;43.846;25.950;2023-03-19T02:43:30;102062.47;;;7.90;100.00
20630;BME280;17386;43.846;25.950;2023-03-19T02:45:56;102060.72;;;7.87;100.00
20630;BME280;17386;43.846;25.950;2023-03-19T02:48:22;102058.97;;;7.83;100.00
20630;BME280;17386;43.846;25.950;2023-03-19T02:50:48;102059.84;;;7.81;100.00
20630;BME280;17386;43.846;25.950;2023-03-19T02:53:14;102059.88;;;7.72;100.00
20630;BME280;17386;43.846;25.950;2023-03-19T02:55:40;102066.09;;;7.58;100.00
20630;BME280;17386;43.846;25.950;2023-03-19T02:58:06;102058.16;;;7.54;100.00
20630;BME280;17386;43.846;25.950;2023-03-19T03:00:32;102061.72;;;7.48;100.00
20630;BME280;17386;43.846;25.950;2023-03-19T03:02:57;102061.72;;;7.44;100.00
20630;BME280;17386;43.846;25.950;2023-03-19T03:05:23;102060.84;;;7.42;100.00
20630;BME280;17386;43.846;25.950;2023-03-19T03:07:48;102065.25;;;7.26;100.00
20630;BME280;17386;43.846;25.950;2023-03-19T03:10:14;102067.88;;;7.27;100.00
20630;BME280;17386;43.846;25.950;2023-03-19T03:12:40;102072.31;;;7.24;100.00
20630;BME280;17386;43.846;25.950;2023-03-19T03:15:06;102068.78;;;7.25;100.00
20630;BME280;17386;43.846;25.950;2023-03-19T03:17:35;102071.41;;;7.26;100.00
20630;BME280;17386;43.846;25.950;2023-03-19T03:20:03;102079.34;;;7.26;100.00
20630;BME280;17386;43.846;25.950;2023-03-19T03:22:28;102079.34;;;7.26;100.00
20630;BME280;17386;43.846;25.950;2023-03-19T03:24:54;102070.56;;;7.23;100.00
20630;BME280;17386;43.846;25.950;2023-03-19T03:27:20;102074.06;;;7.26;100.00
20630;BME280;17386;43.846;25.950;2023-03-19T03:29:45;102078.47;;;7.27;100.00
20630;BME280;17386;43.846;25.950;2023-03-19T03:32:11;102079.38;;;7.23;100.00
20630;BME280;17386;43.846;25.950;2023-03-19T03:34:36;102079.34;;;7.25;100.00
20630;BME280;17386;43.846;25.950;2023-03-19T03:37:02;102086.41;;;7.24;100.00
20630;BME280;17386;43.846;25.950;2023-03-19T03:39:27;102087.28;;;7.23;100.00
20630;BME280;17386;43.846;25.950;2023-03-19T03:41:53;102093.47;;;7.22;100.00
20630;BME280;17386;43.846;25.950;2023-03-19T03:44:18;102086.41;;;7.21;100.00
20630;BME280;17386;43.846;25.950;2023-03-19T03:46:43;102088.19;;;7.21;100.00
20630;BME280;17386;43.846;25.950;2023-03-19T03:49:09;102081.13;;;7.21;100.00
20630;BME280;17386;43.846;25.950;2023-03-19T03:51:35;102082.88;;;7.18;100.00
20630;BME280;17386;43.846;25.950;2023-03-19T03:54:00;102076.72;;;7.14;100.00
20630;BME280;17386;43.846;25.950;2023-03-19T03:56:26;102074.09;;;7.16;100.00
20630;BME280;17386;43.846;25.950;2023-03-19T03:58:51;102087.28;;;7.16;100.00
20630;BME280;17386;43.846;25.950;2023-03-19T04:01:17;102093.44;;;7.18;100.00
20630;BME280;17386;43.846;25.950;2023-03-19T04:03:43;102082.00;;;7.16;100.00
20630;BME280;17386;43.846;25.950;2023-03-19T04:06:14;102082.00;;;7.17;100.00
20630;BME280;17386;43.846;25.950;2023-03-19T04:08:41;102091.69;;;7.15;100.00
20630;BME280;17386;43.846;25.950;2023-03-19T04:11:06;102096.97;;;7.12;100.00
20630;BME280;17386;43.846;25.950;2023-03-19T04:13:32;102100.50;;;7.11;100.00
20630;BME280;17386;43.846;25.950;2023-03-19T04:16:05;102098.75;;;7.08;100.00
20630;BME280;17386;43.846;25.950;2023-03-19T04:18:30;102100.50;;;7.06;100.00
20630;BME280;17386;43.846;25.950;2023-03-19T04:20:56;102095.22;;;7.02;100.00
20630;BME280;17386;43.846;25.950;2023-03-19T04:23:22;102110.16;;;7.00;100.00
20630;BME280;17386;43.846;25.950;2023-03-19T04:25:48;102111.94;;;6.98;100.00
20630;BME280;17386;43.846;25.950;2023-03-19T04:28:13;102107.53;;;6.97;100.00
20630;BME280;17386;43.846;25.950;2023-03-19T04:30:39;102110.19;;;6.94;100.00
20630;BME280;17386;43.846;25.950;2023-03-19T04:33:04;102110.19;;;6.94;100.00
20630;BME280;17386;43.846;25.950;2023-03-19T04:35:31;102120.75;;;6.95;100.00
20630;BME280;17386;43.846;25.950;2023-03-19T04:37:56;102119.00;;;7.00;100.00
20630;BME280;17386;43.846;25.950;2023-03-19T04:40:22;102113.72;;;7.08;100.00
20630;BME280;17386;43.846;25.950;2023-03-19T04:42:47;102113.72;;;7.14;100.00
20630;BME280;17386;43.846;25.950;2023-03-19T04:45:13;102111.06;;;7.12;100.00
20630;BME280;17386;43.846;25.950;2023-03-19T04:47:38;102116.38;;;7.22;100.00
20630;BME280;17386;43.846;25.950;2023-03-19T04:50:05;102114.59;;;7.25;100.00
20630;BME280;17386;43.846;25.950;2023-03-19T04:52:32;102111.94;;;7.27;100.00
20630;BME280;17386;43.846;25.950;2023-03-19T04:54:58;102118.13;;;7.35;100.00
20630;BME280;17386;43.846;25.950;2023-03-19T04:57:23;102113.69;;;7.40;100.00
20630;BME280;17386;43.846;25.950;2023-03-19T04:59:48;102113.69;;;7.48;100.00
20630;BME280;17386;43.846;25.950;2023-03-19T05:02:14;102109.31;;;7.56;100.00
20630;BME280;17386;43.846;25.950;2023-03-19T05:04:39;102117.22;;;7.62;100.00
20630;BME280;17386;43.846;25.950;2023-03-19T05:07:05;102113.69;;;7.66;100.00
20630;BME280;17386;43.846;25.950;2023-03-19T05:09:31;102103.13;;;7.69;100.00
20630;BME280;17386;43.846;25.950;2023-03-19T05:11:57;102111.91;;;7.79;100.00
20630;BME280;17386;43.846;25.950;2023-03-19T05:14:23;102108.34;;;7.87;100.00
20630;BME280;17386;43.846;25.950;2023-03-19T05:16:49;102107.47;;;7.91;100.00
20630;BME280;17386;43.846;25.950;2023-03-19T05:19:14;102109.22;;;7.97;100.00
20630;BME280;17386;43.846;25.950;2023-03-19T05:21:40;102111.81;;;8.05;99.99
20630;BME280;17386;43.846;25.950;2023-03-19T05:24:05;102113.56;;;8.09;99.70
20630;BME280;17386;43.846;25.950;2023-03-19T05:26:31;102116.19;;;8.15;99.11
20630;BME280;17386;43.846;25.950;2023-03-19T05:28:57;102108.25;;;8.18;99.36
20630;BME280;17386;43.846;25.950;2023-03-19T05:31:22;102117.03;;;8.28;99.02
20630;BME280;17386;43.846;25.950;2023-03-19T05:33:48;102109.97;;;8.31;98.69
20630;BME280;17386;43.846;25.950;2023-03-19T05:36:13;102104.66;;;8.33;98.12
20630;BME280;17386;43.846;25.950;2023-03-19T05:38:39;102113.47;;;8.36;97.64
20630;BME280;17386;43.846;25.950;2023-03-19T05:41:05;102120.63;;;8.13;98.75
20630;BME280;17386;43.846;25.950;2023-03-19T05:43:31;102114.41;;;8.15;98.97
20630;BME280;17386;43.846;25.950;2023-03-19T05:45:57;102117.13;;;8.05;99.73
20630;BME280;17386;43.846;25.950;2023-03-19T05:48:23;102122.47;;;7.91;100.00
20630;BME280;17386;43.846;25.950;2023-03-19T05:50:49;102123.31;;;8.04;100.00
20630;BME280;17386;43.846;25.950;2023-03-19T05:53:14;102120.59;;;8.14;99.92
20630;BME280;17386;43.846;25.950;2023-03-19T05:55:40;102113.53;;;8.21;99.66
20630;BME280;17386;43.846;25.950;2023-03-19T05:58:05;102112.59;;;8.30;99.51
20630;BME280;17386;43.846;25.950;2023-03-19T06:00:32;102117.00;;;8.40;99.23
20630;BME280;17386;43.846;25.950;2023-03-19T06:02:57;102124.09;;;8.32;99.38
20630;BME280;17386;43.846;25.950;2023-03-19T06:05:23;102116.09;;;8.45;99.11
20630;BME280;17386;43.846;25.950;2023-03-19T06:07:48;102121.38;;;8.52;98.76
20630;BME280;17386;43.846;25.950;2023-03-19T06:10:14;102115.25;;;8.31;98.59
20630;BME280;17386;43.846;25.950;2023-03-19T06:12:39;102117.88;;;8.33;98.75
20630;BME280;17386;43.846;25.950;2023-03-19T06:15:05;102124.06;;;8.33;98.70
20630;BME280;17386;43.846;25.950;2023-03-19T06:17:31;102128.47;;;8.34;99.00
20630;BME280;17386;43.846;25.950;2023-03-19T06:19:57;102122.38;;;8.14;99.49
20630;BME280;17386;43.846;25.950;2023-03-19T06:22:22;102124.13;;;8.16;100.00
20630;BME280;17386;43.846;25.950;2023-03-19T06:24:47;102123.16;;;8.34;99.61
20630;BME280;17386;43.846;25.950;2023-03-19T06:27:13;102125.75;;;8.56;98.29
20630;BME280;17386;43.846;25.950;2023-03-19T06:29:38;102119.63;;;8.46;98.42
20630;BME280;17386;43.846;25.950;2023-03-19T06:32:04;102123.03;;;8.69;97.77
20630;BME280;17386;43.846;25.950;2023-03-19T06:34:29;102127.56;;;8.43;97.17
20630;BME280;17386;43.846;25.950;2023-03-19T06:36:55;102125.78;;;8.51;97.44
20630;BME280;17386;43.846;25.950;2023-03-19T06:39:21;102115.06;;;8.69;96.86
20630;BME280;17386;43.846;25.950;2023-03-19T06:41:46;102123.69;;;9.02;95.63
20630;BME280;17386;43.846;25.950;2023-03-19T06:44:12;102125.44;;;9.04;95.60
20630;BME280;17386;43.846;25.950;2023-03-19T06:46:37;102129.69;;;9.28;95.37
20630;BME280;17386;43.846;25.950;2023-03-19T06:49:03;102129.88;;;9.02;94.30
20630;BME280;17386;43.846;25.950;2023-03-19T06:51:31;102137.09;;;8.81;95.22
20630;BME280;17386;43.846;25.950;2023-03-19T06:53:56;102145.81;;;8.98;94.72
20630;BME280;17386;43.846;25.950;2023-03-19T06:56:22;102134.19;;;9.20;93.74
20630;BME280;17386;43.846;25.950;2023-03-19T06:58:47;102133.44;;;9.01;94.28
20630;BME280;17386;43.846;25.950;2023-03-19T07:01:12;102136.06;;;9.03;94.05
20630;BME280;17386;43.846;25.950;2023-03-19T07:03:38;102135.97;;;9.12;93.83
20630;BME280;17386;43.846;25.950;2023-03-19T07:06:03;102131.50;;;9.23;93.64
20630;BME280;17386;43.846;25.950;2023-03-19T07:08:29;102131.47;;;9.26;93.64
20630;BME280;17386;43.846;25.950;2023-03-19T07:10:56;102132.34;;;9.28;93.50
20630;BME280;17386;43.846;25.950;2023-03-19T07:13:21;102135.81;;;9.35;92.96
20630;BME280;17386;43.846;25.950;2023-03-19T07:15:47;102128.56;;;9.55;92.17
20630;BME280;17386;43.846;25.950;2023-03-19T07:18:13;102129.28;;;9.71;91.23
20630;BME280;17386;43.846;25.950;2023-03-19T07:20:38;102134.47;;;9.83;90.20
20630;BME280;17386;43.846;25.950;2023-03-19T07:23:04;102140.63;;;9.89;90.27
20630;BME280;17386;43.846;25.950;2023-03-19T07:25:29;102146.81;;;9.89;90.12
20630;BME280;17386;43.846;25.950;2023-03-19T07:27:55;102141.50;;;9.87;90.03
20630;BME280;17386;43.846;25.950;2023-03-19T07:30:20;102144.13;;;9.92;89.17
20630;BME280;17386;43.846;25.950;2023-03-19T07:32:46;102136.69;;;10.22;87.62
20630;BME280;17386;43.846;25.950;2023-03-19T07:35:11;102135.75;;;10.29;86.45
20630;BME280;17386;43.846;25.950;2023-03-19T07:37:38;102137.66;;;10.14;85.84
20630;BME280;17386;43.846;25.950;2023-03-19T07:40:04;102135.06;;;10.08;86.00
20630;BME280;17386;43.846;25.950;2023-03-19T07:42:30;102143.03;;;10.11;86.23
20630;BME280;17386;43.846;25.950;2023-03-19T07:44:55;102140.31;;;10.16;85.98
20630;BME280;17386;43.846;25.950;2023-03-19T07:47:20;102135.59;;;10.44;85.81
20630;BME280;17386;43.846;25.950;2023-03-19T07:49:46;102133.66;;;10.57;84.45
20630;BME280;17386;43.846;25.950;2023-03-19T07:52:11;102131.56;;;10.79;83.61
20630;BME280;17386;43.846;25.950;2023-03-19T07:54:38;102119.63;;;11.06;82.04
20630;BME280;17386;43.846;25.950;2023-03-19T07:57:04;102124.75;;;11.18;80.76
20630;BME280;17386;43.846;25.950;2023-03-19T07:59:29;102126.91;;;10.94;80.03
20630;BME280;17386;43.846;25.950;2023-03-19T08:01:54;102116.59;;;10.70;81.88
20630;BME280;17386;43.846;25.950;2023-03-19T08:04:20;102116.06;;;11.07;81.74
20630;BME280;17386;43.846;25.950;2023-03-19T08:06:45;102116.78;;;11.16;79.56
20630;BME280;17386;43.846;25.950;2023-03-19T08:09:11;102113.03;;;11.30;80.01
20630;BME280;17386;43.846;25.950;2023-03-19T08:11:36;102117.00;;;11.57;79.54
20630;BME280;17386;43.846;25.950;2023-03-19T08:14:02;102110.34;;;11.82;77.15
20630;BME280;17386;43.846;25.950;2023-03-19T08:16:27;102110.78;;;12.05;76.13
20630;BME280;17386;43.846;25.950;2023-03-19T08:18:53;102111.53;;;12.12;74.89
20630;BME280;17386;43.846;25.950;2023-03-19T08:21:18;102104.56;;;12.05;74.96
20630;BME280;17386;43.846;25.950;2023-03-19T08:23:43;102104.69;;;11.99;74.50
20630;BME280;17386;43.846;25.950;2023-03-19T08:26:09;102102.28;;;11.85;74.99
20630;BME280;17386;43.846;25.950;2023-03-19T08:28:35;102102.25;;;11.87;74.87
20630;BME280;17386;43.846;25.950;2023-03-19T08:31:06;102100.19;;;12.02;74.21
20630;BME280;17386;43.846;25.950;2023-03-19T08:33:32;102100.94;;;12.08;74.34
20630;BME280;17386;43.846;25.950;2023-03-19T08:36:08;102090.56;;;11.94;74.21
20630;BME280;17386;43.846;25.950;2023-03-19T08:38:34;102096.06;;;11.88;74.83
20630;BME280;17386;43.846;25.950;2023-03-19T08:41:00;102097.59;;;11.98;74.19
20630;BME280;17386;43.846;25.950;2023-03-19T08:43:29;102087.41;;;11.73;75.41
20630;BME280;17386;43.846;25.950;2023-03-19T08:45:55;102084.09;;;12.09;74.59
20630;BME280;17386;43.846;25.950;2023-03-19T08:48:21;102086.97;;;12.40;73.44
20630;BME280;17386;43.846;25.950;2023-03-19T08:50:52;102082.34;;;12.49;71.54
20630;BME280;17386;43.846;25.950;2023-03-19T08:53:17;102079.16;;;12.71;70.45
20630;BME280;17386;43.846;25.950;2023-03-19T08:55:43;102075.63;;;12.70;69.13
20630;BME280;17386;43.846;25.950;2023-03-19T08:58:08;102072.53;;;12.50;69.38
20630;BME280;17386;43.846;25.950;2023-03-19T09:00:33;102069.53;;;12.65;68.99
20630;BME280;17386;43.846;25.950;2023-03-19T09:02:59;102077.88;;;12.48;70.71
20630;BME280;17386;43.846;25.950;2023-03-19T09:05:24;102079.03;;;12.77;70.31
20630;BME280;17386;43.846;25.950;2023-03-19T09:07:50;102069.66;;;12.59;70.53
20630;BME280;17386;43.846;25.950;2023-03-19T09:10:16;102065.34;;;12.53;70.27
20630;BME280;17386;43.846;25.950;2023-03-19T09:12:41;102062.56;;;12.58;70.31
20630;BME280;17386;43.846;25.950;2023-03-19T09:15:07;102046.25;;;12.72;69.11
20630;BME280;17386;43.846;25.950;2023-03-19T09:17:33;102052.41;;;12.74;69.91
20630;BME280;17386;43.846;25.950;2023-03-19T09:19:58;102043.31;;;12.84;69.65
20630;BME280;17386;43.846;25.950;2023-03-19T09:22:23;102058.94;;;12.99;69.64
20630;BME280;17386;43.846;25.950;2023-03-19T09:24:49;102052.59;;;13.39;67.66
20630;BME280;17386;43.846;25.950;2023-03-19T09:27:14;102043.69;;;13.71;65.80
20630;BME280;17386;43.846;25.950;2023-03-19T09:29:40;102049.19;;;13.98;65.43
20630;BME280;17386;43.846;25.950;2023-03-19T09:32:05;102040.09;;;14.33;63.70
20630;BME280;17386;43.846;25.950;2023-03-19T09:34:31;102045.50;;;14.02;63.45
20630;BME280;17386;43.846;25.950;2023-03-19T09:36:56;102038.78;;;13.88;65.01
20630;BME280;17386;43.846;25.950;2023-03-19T09:39:22;102048.94;;;14.05;64.62
20630;BME280;17386;43.846;25.950;2023-03-19T09:44:36;102048.72;;;14.13;63.06
20630;BME280;17386;43.846;25.950;2023-03-19T09:47:24;102040.72;;;14.42;61.71
20630;BME280;17386;43.846;25.950;2023-03-19T09:49:52;102042.16;;;14.54;59.98
20630;BME280;17386;43.846;25.950;2023-03-19T09:57:37;102035.78;;;15.13;53.97
20630;BME280;17386;43.846;25.950;2023-03-19T10:00:31;102023.78;;;14.71;54.81
20630;BME280;17386;43.846;25.950;2023-03-19T10:16:40;102009.34;;;16.25;51.16
20630;BME280;17386;43.846;25.950;2023-03-19T10:19:08;101999.63;;;16.66;49.96
20630;BME280;17386;43.846;25.950;2023-03-19T10:21:40;102004.75;;;16.51;48.28
20630;BME280;17386;43.846;25.950;2023-03-19T10:27:14;101995.34;;;16.62;49.24
20630;BME280;17386;43.846;25.950;2023-03-19T10:29:40;101994.00;;;17.16;47.92
20630;BME280;17386;43.846;25.950;2023-03-19T10:34:48;101980.94;;;18.63;43.81
20630;BME280;17386;43.846;25.950;2023-03-19T10:37:23;101991.78;;;18.61;43.25
20630;BME280;17386;43.846;25.950;2023-03-19T10:39:52;101978.94;;;18.85;42.51
20630;BME280;17386;43.846;25.950;2023-03-19T10:42:45;101981.13;;;18.41;42.87
20630;BME280;17386;43.846;25.950;2023-03-19T10:45:26;101966.72;;;18.42;42.61
20630;BME280;17386;43.846;25.950;2023-03-19T10:47:52;101960.16;;;18.47;43.37
20630;BME280;17386;43.846;25.950;2023-03-19T10:51:06;101954.41;;;18.55;43.49
20630;BME280;17386;43.846;25.950;2023-03-19T10:55:46;101948.63;;;18.26;42.80
20630;BME280;17386;43.846;25.950;2023-03-19T10:58:17;101938.59;;;18.11;43.58
20630;BME280;17386;43.846;25.950;2023-03-19T11:00:48;101943.41;;;17.86;43.89
20630;BME280;17386;43.846;25.950;2023-03-19T11:03:50;101940.72;;;18.04;43.09
20630;BME280;17386;43.846;25.950;2023-03-19T11:06:21;101931.97;;;18.18;43.31
20630;BME280;17386;43.846;25.950;2023-03-19T11:08:58;101927.19;;;18.61;42.29
20630;BME280;17386;43.846;25.950;2023-03-19T11:11:47;101931.41;;;18.84;40.73
20630;BME280;17386;43.846;25.950;2023-03-19T11:14:24;101923.97;;;18.89;40.99
20630;BME280;17386;43.846;25.950;2023-03-19T11:17:02;101918.94;;;18.47;42.77
20630;BME280;17386;43.846;25.950;2023-03-19T11:19:30;101920.66;;;18.65;42.90
20630;BME280;17386;43.846;25.950;2023-03-19T11:22:00;101918.03;;;19.00;41.03
20630;BME280;17386;43.846;25.950;2023-03-19T11:24:26;101908.25;;;19.32;40.92
20630;BME280;17386;43.846;25.950;2023-03-19T11:26:55;101900.09;;;19.66;40.32
20630;BME280;17386;43.846;25.950;2023-03-19T11:29:21;101908.00;;;19.36;40.22
20630;BME280;17386;43.846;25.950;2023-03-19T11:31:55;101902.66;;;19.02;39.77
20630;BME280;17386;43.846;25.950;2023-03-19T11:46:33;101886.50;;;19.68;36.67
20630;BME280;17386;43.846;25.950;2023-03-19T12:00:06;101866.34;;;19.75;38.18
20630;BME280;17386;43.846;25.950;2023-03-19T12:08:27;101851.06;;;19.91;38.48
20630;BME280;17386;43.846;25.950;2023-03-19T12:11:08;101842.59;;;19.82;37.47
20630;BME280;17386;43.846;25.950;2023-03-19T12:14:30;101840.41;;;19.57;37.54
20630;BME280;17386;43.846;25.950;2023-03-19T12:22:08;101836.25;;;19.67;36.13
20630;BME280;17386;43.846;25.950;2023-03-19T12:30:49;101815.41;;;20.62;33.01
20630;BME280;17386;43.846;25.950;2023-03-19T12:36:10;101804.72;;;20.61;33.10
20630;BME280;17386;43.846;25.950;2023-03-19T12:38:44;101805.06;;;20.09;34.64
20630;BME280;17386;43.846;25.950;2023-03-19T12:41:18;101797.94;;;20.08;33.61
20630;BME280;17386;43.846;25.950;2023-03-19T12:49:40;101791.69;;;20.07;34.85
20630;BME280;17386;43.846;25.950;2023-03-19T12:52:47;101784.03;;;20.30;34.86
20630;BME280;17386;43.846;25.950;2023-03-19T12:55:20;101780.94;;;19.44;35.99
20630;BME280;17386;43.846;25.950;2023-03-19T12:57:55;101785.41;;;18.79;37.03
20630;BME280;17386;43.846;25.950;2023-03-19T13:00:26;101783.34;;;18.84;36.93
20630;BME280;17386;43.846;25.950;2023-03-19T13:03:17;101771.94;;;19.28;35.36
20630;BME280;17386;43.846;25.950;2023-03-19T13:08:38;101780.00;;;17.92;37.26
20630;BME280;17386;43.846;25.950;2023-03-19T13:11:12;101772.34;;;17.85;38.10
20630;BME280;17386;43.846;25.950;2023-03-19T13:14:00;101769.72;;;17.27;39.65
20630;BME280;17386;43.846;25.950;2023-03-19T13:19:45;101760.66;;;17.10;40.35
20630;BME280;17386;43.846;25.950;2023-03-19T13:22:16;101770.31;;;16.95;40.22
20630;BME280;17386;43.846;25.950;2023-03-19T13:24:45;101758.91;;;16.90;41.06
20630;BME280;17386;43.846;25.950;2023-03-19T13:27:12;101753.66;;;16.87;41.61
20630;BME280;17386;43.846;25.950;2023-03-19T13:29:55;101741.81;;;16.73;42.11
20630;BME280;17386;43.846;25.950;2023-03-19T13:32:26;101741.94;;;16.49;41.78
20630;BME280;17386;43.846;25.950;2023-03-19T13:35:12;101740.84;;;16.53;41.89
20630;BME280;17386;43.846;25.950;2023-03-19T13:37:43;101732.50;;;16.40;42.79
20630;BME280;17386;43.846;25.950;2023-03-19T13:51:23;101717.63;;;15.93;44.69
20630;BME280;17386;43.846;25.950;2023-03-19T13:56:26;101712.94;;;15.76;45.93
20630;BME280;17386;43.846;25.950;2023-03-19T13:59:26;101706.00;;;15.72;45.48
20630;BME280;17386;43.846;25.950;2023-03-19T14:01:52;101695.00;;;15.78;45.39
20630;BME280;17386;43.846;25.950;2023-03-19T14:07:19;101705.06;;;15.73;45.14
20630;BME280;17386;43.846;25.950;2023-03-19T14:10:01;101697.66;;;15.56;45.58
20630;BME280;17386;43.846;25.950;2023-03-19T14:12:42;101683.19;;;15.62;45.47
20630;BME280;17386;43.846;25.950;2023-03-19T14:25:21;101674.38;;;15.80;45.99
20630;BME280;17386;43.846;25.950;2023-03-19T14:28:31;101684.28;;;15.78;46.11
20630;BME280;17386;43.846;25.950;2023-03-19T14:30:39;101679.84;;;15.77;45.71
20630;BME280;17386;43.846;25.950;2023-03-19T14:33:17;101676.84;;;15.84;45.83
20630;BME280;17386;43.846;25.950;2023-03-19T14:35:45;101692.75;;;15.89;45.62
20630;BME280;17386;43.846;25.950;2023-03-19T14:38:51;101688.00;;;15.96;45.74
20630;BME280;17386;43.846;25.950;2023-03-19T14:41:21;101680.13;;;15.91;45.45